Time;durP1;ratioP1;P1;durP2;ratioP2;P2;SDS_P1;SDS_P2;PMS_P1;PMS_P2;Temp;Humidity;BMP_temperature;BMP_pressure;BME280_temperature;BME280_humidity;BME280_pressure;Samples;Min_cycle;Max_cycle;Signal;HPM_P1;HPM_P2
2021/08/26 00:07:40;;;;;;;9.35;4.78;;;16.00;97.40;;;;;;5036598;28;20044;-85
2021/08/26 00:10:09;;;;;;;9.05;4.75;;;15.90;97.20;;;;;;5053074;28;20124;-85
2021/08/26 00:12:38;;;;;;;7.85;4.43;;;15.90;97.30;;;;;;5052691;28;20503;-86
2021/08/26 00:15:06;;;;;;;9.13;4.45;;;15.90;97.30;;;;;;5052896;28;20055;-85
2021/08/26 00:17:35;;;;;;;9.00;5.00;;;15.90;97.20;;;;;;5052836;28;20048;-86
2021/08/26 00:20:03;;;;;;;8.95;4.90;;;15.90;97.20;;;;;;5053039;28;20041;-85
2021/08/26 00:22:31;;;;;;;11.55;5.60;;;15.80;97.20;;;;;;5046266;28;20046;-86
2021/08/26 00:24:58;;;;;;;8.80;4.53;;;15.80;97.20;;;;;;5032919;28;20476;-86
2021/08/26 00:27:25;;;;;;;11.50;5.20;;;15.80;97.10;;;;;;5033594;28;20065;-86
2021/08/26 00:29:52;;;;;;;9.13;5.00;;;15.80;97.20;;;;;;5031579;28;20049;-85
2021/08/26 00:32:19;;;;;;;8.90;4.50;;;15.80;97.20;;;;;;5032655;28;20136;-86
2021/08/26 00:34:47;;;;;;;9.52;5.47;;;15.70;97.20;;;;;;5048889;28;20132;-85
2021/08/26 00:37:14;;;;;;;10.07;5.07;;;15.80;97.40;;;;;;5052808;28;20048;-86
2021/08/26 00:39:41;;;;;;;9.32;5.45;;;15.80;97.40;;;;;;5041586;28;20055;-87
2021/08/26 00:42:09;;;;;;;7.35;4.43;;;15.70;97.20;;;;;;5036946;28;20049;-86
2021/08/26 00:44:36;;;;;;;9.40;4.95;;;15.70;97.40;;;;;;5036566;28;20049;-86
2021/08/26 00:47:04;;;;;;;8.68;5.22;;;15.70;97.20;;;;;;5043262;28;20044;-84
2021/08/26 00:49:31;;;;;;;10.15;4.95;;;15.70;97.20;;;;;;5056891;28;20045;-86
2021/08/26 00:52:00;;;;;;;9.20;5.15;;;15.60;97.20;;;;;;5056607;28;20049;-86
2021/08/26 00:54:27;;;;;;;10.05;5.50;;;15.60;97.30;;;;;;5044988;28;20042;-87
2021/08/26 00:56:56;;;;;;;10.48;5.60;;;15.50;97.40;;;;;;5036524;28;20510;-86
2021/08/26 00:59:23;;;;;;;10.55;5.47;;;15.40;97.60;;;;;;5036578;28;20045;-85
2021/08/26 01:02:00;;;;;;;8.82;5.20;;;15.30;97.70;;;;;;5037315;28;20487;-87
2021/08/26 01:04:35;;;;;;;8.20;5.32;;;15.20;98.10;;;;;;5036454;28;20045;-85
2021/08/26 01:07:07;;;;;;;10.30;5.35;;;15.10;98.10;;;;;;5040820;28;20051;-86
2021/08/26 01:09:43;;;;;;;9.68;5.80;;;15.10;98.20;;;;;;5056267;28;20049;-84
2021/08/26 01:12:15;;;;;;;9.70;5.05;;;15.00;98.50;;;;;;5056136;28;20581;-86
2021/08/26 01:14:44;;;;;;;8.90;5.13;;;14.90;98.30;;;;;;5056424;28;20045;-86
2021/08/26 01:17:18;;;;;;;9.32;5.60;;;14.90;98.50;;;;;;5056096;28;20041;-85
2021/08/26 01:19:45;;;;;;;9.23;5.13;;;14.90;98.60;;;;;;5055732;28;20055;-87
2021/08/26 01:22:13;;;;;;;8.77;4.82;;;14.90;98.70;;;;;;5056194;28;20433;-86
2021/08/26 01:24:41;;;;;;;11.10;5.20;;;14.90;98.70;;;;;;5054239;28;20052;-86
2021/08/26 01:27:11;;;;;;;8.07;4.93;;;14.90;98.70;;;;;;5051776;28;20064;-86
2021/08/26 01:29:39;;;;;;;9.23;5.55;;;14.90;98.60;;;;;;5035886;28;20407;-85
2021/08/26 01:32:07;;;;;;;10.15;5.78;;;14.90;98.70;;;;;;5035864;28;20051;-85
2021/08/26 01:34:34;;;;;;;10.75;4.95;;;14.90;98.60;;;;;;5035793;28;20046;-85
2021/08/26 01:37:02;;;;;;;10.05;5.55;;;14.80;98.70;;;;;;5036765;28;20133;-84
2021/08/26 01:39:29;;;;;;;11.48;5.65;;;14.90;98.80;;;;;;5046163;28;20049;-85
2021/08/26 01:41:57;;;;;;;11.50;5.85;;;14.80;98.70;;;;;;5055652;28;20045;-84
2021/08/26 01:44:27;;;;;;;10.15;5.50;;;14.80;98.80;;;;;;5055543;28;20052;-85
2021/08/26 01:46:57;;;;;;;10.50;5.18;;;14.80;98.80;;;;;;5047894;28;20049;-86
2021/08/26 01:49:24;;;;;;;10.32;5.43;;;14.80;98.90;;;;;;5035298;28;20057;-85
2021/08/26 01:51:51;;;;;;;8.57;4.80;;;14.70;98.90;;;;;;5035499;28;20137;-85
2021/08/26 01:54:18;;;;;;;9.93;5.25;;;14.70;98.90;;;;;;5045373;28;20045;-85
2021/08/26 01:56:45;;;;;;;11.40;5.70;;;14.70;99.00;;;;;;5055278;28;20516;-85
2021/08/26 01:59:12;;;;;;;9.07;5.05;;;14.70;99.00;;;;;;5055276;28;20051;-85
2021/08/26 02:01:40;;;;;;;9.90;5.30;;;14.60;99.30;;;;;;5053542;28;20044;-85
2021/08/26 02:04:08;;;;;;;11.70;5.78;;;14.60;99.10;;;;;;5034953;28;20132;-86
2021/08/26 02:06:35;;;;;;;10.55;5.45;;;14.60;99.50;;;;;;5036384;28;20487;-85
2021/08/26 02:09:02;;;;;;;11.00;5.50;;;14.60;99.30;;;;;;5035285;28;20045;-88
2021/08/26 02:11:29;;;;;;;10.25;5.57;;;14.50;99.30;;;;;;5035199;28;20056;-86
2021/08/26 02:13:56;;;;;;;9.77;4.90;;;14.50;99.40;;;;;;5035433;28;20049;-86
2021/08/26 02:16:23;;;;;;;8.38;5.07;;;14.50;99.40;;;;;;5034847;28;20051;-85
2021/08/26 02:18:52;;;;;;;9.25;5.20;;;14.50;99.50;;;;;;5035101;28;20045;-86
2021/08/26 02:21:19;;;;;;;9.38;5.25;;;14.50;99.50;;;;;;5035384;28;20045;-86
2021/08/26 02:23:47;;;;;;;9.90;5.70;;;14.50;99.50;;;;;;5036120;28;20128;-86
2021/08/26 02:26:14;;;;;;;8.88;5.43;;;14.40;99.50;;;;;;5035300;28;20398;-86
2021/08/26 02:28:41;;;;;;;9.32;5.10;;;14.50;99.90;;;;;;5054845;28;20124;-85
2021/08/26 02:31:08;;;;;;;8.60;5.20;;;14.40;99.60;;;;;;5054872;28;20049;-87
2021/08/26 02:33:35;;;;;;;9.98;5.22;;;14.40;99.70;;;;;;5042625;28;20430;-88
2021/08/26 02:36:04;;;;;;;10.20;5.20;;;14.40;99.80;;;;;;5035041;28;20049;-86
2021/08/26 02:38:31;;;;;;;11.13;5.65;;;14.40;99.90;;;;;;5034677;28;20057;-87
2021/08/26 02:40:58;;;;;;;8.05;5.00;;;14.30;99.90;;;;;;5036190;28;20069;-87
2021/08/26 02:43:25;;;;;;;9.95;5.30;;;14.30;99.90;;;;;;5034661;28;20418;-87
2021/08/26 02:45:52;;;;;;;9.18;5.43;;;14.30;99.90;;;;;;5034485;28;20056;-86
2021/08/26 02:48:19;;;;;;;9.55;5.30;;;14.30;99.90;;;;;;5034646;28;20042;-87
2021/08/26 02:50:46;;;;;;;9.05;5.40;;;14.30;99.90;;;;;;5034383;28;20487;-87
2021/08/26 02:53:14;;;;;;;9.52;5.90;;;14.20;99.90;;;;;;5035214;28;20475;-86
2021/08/26 02:55:41;;;;;;;10.18;5.53;;;14.30;99.90;;;;;;5054325;28;20045;-86
2021/08/26 02:58:08;;;;;;;9.48;5.63;;;14.20;99.90;;;;;;5053993;28;20053;-85
2021/08/26 03:00:35;;;;;;;8.98;5.53;;;14.20;99.90;;;;;;5053550;28;20045;-87
2021/08/26 03:03:03;;;;;;;9.68;5.50;;;14.10;99.90;;;;;;5051447;28;20043;-86
2021/08/26 03:05:30;;;;;;;10.48;5.80;;;14.10;99.90;;;;;;5036852;28;20049;-86
2021/08/26 03:07:57;;;;;;;9.45;5.38;;;14.10;99.90;;;;;;5030271;28;20087;-87
2021/08/26 03:10:26;;;;;;;11.00;5.85;;;14.10;99.90;;;;;;5030856;28;20052;-86
2021/08/26 03:12:54;;;;;;;10.88;6.20;;;14.10;99.90;;;;;;5030883;28;20079;-85
2021/08/26 03:15:21;;;;;;;10.32;5.65;;;14.10;99.90;;;;;;5030666;28;20049;-87
2021/08/26 03:17:48;;;;;;;9.88;5.80;;;14.10;99.90;;;;;;5045085;28;20132;-86
2021/08/26 03:20:15;;;;;;;10.43;6.10;;;14.10;99.90;;;;;;5050393;28;20107;-85
2021/08/26 03:22:42;;;;;;;9.68;5.28;;;14.00;99.90;;;;;;5047766;28;20063;-84
2021/08/26 03:25:10;;;;;;;11.25;6.10;;;14.10;99.90;;;;;;5047346;28;20048;-82
2021/08/26 03:27:38;;;;;;;10.38;5.97;;;14.10;99.90;;;;;;5050269;28;20401;-85
2021/08/26 03:30:07;;;;;;;12.43;6.53;;;14.10;99.90;;;;;;5030549;28;20048;-86
2021/08/26 03:32:34;;;;;;;11.85;6.00;;;14.00;99.90;;;;;;5030223;28;20406;-83
2021/08/26 03:35:02;;;;;;;10.27;5.53;;;14.10;99.90;;;;;;5030097;28;20042;-82
2021/08/26 03:37:29;;;;;;;10.95;6.20;;;14.00;99.90;;;;;;5029740;28;20429;-83
2021/08/26 03:39:56;;;;;;;10.05;6.03;;;14.00;99.90;;;;;;5030277;28;20067;-84
2021/08/26 03:42:23;;;;;;;10.90;5.85;;;14.00;99.90;;;;;;5030252;28;20067;-80
2021/08/26 03:44:51;;;;;;;10.15;6.05;;;14.10;99.90;;;;;;5030478;28;20479;-80
2021/08/26 03:47:18;;;;;;;9.75;5.28;;;14.10;99.90;;;;;;5030044;28;20072;-80
2021/08/26 03:49:46;;;;;;;11.40;6.00;;;14.10;99.90;;;;;;5029596;28;20045;-80
2021/08/26 03:52:13;;;;;;;10.60;6.18;;;14.10;99.90;;;;;;5029791;28;20053;-80
2021/08/26 03:54:40;;;;;;;9.27;5.63;;;14.00;99.90;;;;;;5042926;28;20139;-80
2021/08/26 03:57:07;;;;;;;10.35;6.15;;;14.00;99.90;;;;;;5049614;28;20482;-80
2021/08/26 03:59:34;;;;;;;11.63;6.50;;;13.90;99.90;;;;;;5049633;28;20045;-80
2021/08/26 04:02:03;;;;;;;12.02;6.38;;;13.90;99.90;;;;;;5049110;28;20041;-80
2021/08/26 04:04:30;;;;;;;9.82;5.60;;;13.90;99.90;;;;;;5033079;28;20049;-81
2021/08/26 04:06:57;;;;;;;10.90;6.47;;;13.80;99.90;;;;;;5040413;28;20037;-81
2021/08/26 04:09:24;;;;;;;9.52;5.72;;;13.80;99.90;;;;;;5052969;28;20482;-85
2021/08/26 04:11:51;;;;;;;11.93;5.95;;;13.80;99.90;;;;;;5053506;28;20049;-88
2021/08/26 04:14:18;;;;;;;11.00;5.82;;;13.70;99.90;;;;;;5053128;28;20045;-80
2021/08/26 04:16:45;;;;;;;11.32;6.15;;;13.80;99.90;;;;;;5052999;28;20052;-80
2021/08/26 04:19:13;;;;;;;11.00;6.65;;;13.70;99.90;;;;;;5033268;28;20045;-84
2021/08/26 04:21:40;;;;;;;10.82;5.95;;;13.80;99.90;;;;;;5033819;28;20049;-87
2021/08/26 04:24:07;;;;;;;10.38;5.88;;;13.80;99.90;;;;;;5034077;28;20392;-88
2021/08/26 04:26:34;;;;;;;10.70;5.72;;;13.70;99.90;;;;;;5033692;28;20388;-89
2021/08/26 04:29:01;;;;;;;8.93;5.60;;;13.70;99.90;;;;;;5047702;28;20049;-89
2021/08/26 04:31:28;;;;;;;9.68;6.07;;;13.70;99.90;;;;;;5053566;28;20056;-85
2021/08/26 04:33:55;;;;;;;9.52;5.72;;;13.70;99.90;;;;;;5053336;28;20056;-87
2021/08/26 04:36:24;;;;;;;11.05;5.95;;;13.70;99.90;;;;;;5053530;28;20053;-87
2021/08/26 04:38:51;;;;;;;10.82;6.03;;;13.70;99.90;;;;;;5053293;28;20072;-88
2021/08/26 04:41:18;;;;;;;10.70;5.78;;;13.70;99.90;;;;;;5053385;28;20510;-88
2021/08/26 04:43:45;;;;;;;11.48;6.50;;;13.70;99.90;;;;;;5053626;28;20052;-87
2021/08/26 04:46:12;;;;;;;9.43;5.20;;;13.70;99.90;;;;;;5053121;28;20049;-86
2021/08/26 04:48:39;;;;;;;10.98;6.47;;;13.70;99.90;;;;;;5056834;28;20067;-87
2021/08/26 04:51:06;;;;;;;9.60;5.93;;;13.70;99.90;;;;;;5057467;28;20136;-87
2021/08/26 04:53:35;;;;;;;9.68;5.78;;;13.70;99.90;;;;;;5057957;28;20055;-87
2021/08/26 04:56:02;;;;;;;9.80;5.90;;;13.80;99.90;;;;;;5053816;28;20044;-88
2021/08/26 04:58:29;;;;;;;9.40;5.88;;;13.70;99.90;;;;;;5053310;28;20045;-88
2021/08/26 05:00:56;;;;;;;12.02;6.95;;;13.80;99.90;;;;;;5053218;28;20123;-87
2021/08/26 05:03:23;;;;;;;11.93;6.10;;;13.80;99.90;;;;;;5053235;28;20402;-88
2021/08/26 05:05:50;;;;;;;10.38;6.18;;;13.80;99.90;;;;;;5053165;28;20135;-87
2021/08/26 05:08:17;;;;;;;9.18;5.47;;;13.80;99.90;;;;;;5053139;28;20049;-88
2021/08/26 05:10:45;;;;;;;10.45;6.47;;;13.80;99.90;;;;;;5053002;28;20096;-88
2021/08/26 05:13:12;;;;;;;12.90;7.13;;;13.80;99.90;;;;;;5053144;28;20059;-87
2021/08/26 05:15:40;;;;;;;14.15;7.57;;;13.80;99.90;;;;;;5052904;28;20136;-86
2021/08/26 05:18:08;;;;;;;17.08;8.05;;;13.80;99.90;;;;;;5053138;28;20047;-88
2021/08/26 05:20:35;;;;;;;16.00;7.90;;;13.80;99.90;;;;;;5033306;28;20045;-87
2021/08/26 05:23:02;;;;;;;17.55;8.80;;;13.80;99.90;;;;;;5033035;28;20041;-88
2021/08/26 05:25:29;;;;;;;14.40;7.72;;;13.90;99.90;;;;;;5035048;28;20046;-88
2021/08/26 05:27:57;;;;;;;16.35;8.23;;;13.80;99.90;;;;;;5036476;28;20075;-88
2021/08/26 05:30:24;;;;;;;14.02;7.97;;;13.90;99.90;;;;;;5036404;28;20047;-87
2021/08/26 05:32:51;;;;;;;14.35;7.82;;;13.90;99.90;;;;;;5036716;28;20041;-87
2021/08/26 05:35:19;;;;;;;15.77;8.43;;;13.90;99.90;;;;;;5036424;28;20410;-88
2021/08/26 05:37:46;;;;;;;12.77;7.53;;;13.90;99.90;;;;;;5036070;28;20410;-87
2021/08/26 05:40:13;;;;;;;11.27;6.90;;;14.00;99.90;;;;;;5036333;28;20042;-86
2021/08/26 05:42:40;;;;;;;13.23;6.97;;;14.00;99.90;;;;;;5036312;28;20088;-87
2021/08/26 05:45:09;;;;;;;11.90;6.80;;;14.00;99.90;;;;;;5036154;28;20072;-86
2021/08/26 05:47:36;;;;;;;9.68;5.70;;;14.00;99.90;;;;;;5036289;28;20402;-87
2021/08/26 05:50:05;;;;;;;10.13;6.13;;;14.00;99.90;;;;;;5035816;28;20487;-87
2021/08/26 05:52:32;;;;;;;8.65;5.85;;;14.00;99.90;;;;;;5035992;28;20041;-87
2021/08/26 05:54:59;;;;;;;10.50;6.20;;;14.00;99.90;;;;;;5035912;28;20053;-88
2021/08/26 05:57:26;;;;;;;10.70;6.03;;;14.00;99.90;;;;;;5036294;28;20380;-87
2021/08/26 05:59:53;;;;;;;9.43;5.60;;;14.00;99.90;;;;;;5036290;28;20045;-88
2021/08/26 06:02:21;;;;;;;10.68;6.25;;;14.00;99.90;;;;;;5036076;28;20052;-87
2021/08/26 06:04:48;;;;;;;10.70;6.57;;;14.10;99.90;;;;;;5035742;28;20490;-87
2021/08/26 06:07:15;;;;;;;11.20;6.63;;;14.10;99.90;;;;;;5035894;28;20059;-88
2021/08/26 06:09:42;;;;;;;12.40;6.22;;;14.00;99.90;;;;;;5035941;28;20051;-88
2021/08/26 06:12:09;;;;;;;8.73;5.22;;;14.00;99.90;;;;;;5035881;28;20048;-88
2021/08/26 06:14:36;;;;;;;10.68;6.22;;;14.00;99.90;;;;;;5035828;28;20052;-90
2021/08/26 06:17:04;;;;;;;11.20;6.00;;;14.00;99.90;;;;;;5035714;28;20049;-88
2021/08/26 06:19:32;;;;;;;11.15;6.93;;;14.00;99.90;;;;;;5035639;28;20457;-88
2021/08/26 06:21:59;;;;;;;11.10;6.18;;;14.00;99.90;;;;;;5034751;28;20048;-86
2021/08/26 06:24:26;;;;;;;11.10;6.43;;;14.00;99.90;;;;;;5034520;28;20051;-88
2021/08/26 06:26:53;;;;;;;10.77;6.38;;;14.00;99.90;;;;;;5035347;28;20052;-87
2021/08/26 06:29:22;;;;;;;10.10;5.60;;;14.00;99.90;;;;;;5035301;28;20042;-88
2021/08/26 06:31:49;;;;;;;10.07;5.85;;;14.00;99.90;;;;;;5035087;28;20049;-87
2021/08/26 06:34:16;;;;;;;11.07;5.95;;;14.10;99.90;;;;;;5035927;28;20059;-88
2021/08/26 06:36:44;;;;;;;10.43;6.00;;;14.10;99.90;;;;;;5034750;28;20136;-88
2021/08/26 06:39:11;;;;;;;10.15;6.07;;;14.20;99.90;;;;;;5034857;28;20057;-88
2021/08/26 06:41:39;;;;;;;8.20;5.20;;;14.20;99.90;;;;;;5035056;28;20053;-89
2021/08/26 06:44:06;;;;;;;11.13;6.32;;;14.20;99.90;;;;;;5034808;28;20049;-89
2021/08/26 06:46:33;;;;;;;10.48;5.97;;;14.20;99.90;;;;;;5034623;28;20136;-88
2021/08/26 06:49:00;;;;;;;10.40;5.97;;;14.20;99.90;;;;;;5035663;28;20049;-89
2021/08/26 06:51:27;;;;;;;11.25;6.13;;;14.30;99.90;;;;;;5035652;28;20060;-89
2021/08/26 06:53:55;;;;;;;15.40;6.60;;;14.30;99.90;;;;;;5035055;28;20140;-89
2021/08/26 06:56:23;;;;;;;9.20;6.20;;;14.40;99.90;;;;;;5034926;28;20479;-89
2021/08/26 06:58:50;;;;;;;9.57;6.32;;;14.40;99.90;;;;;;5034305;28;20073;-89
2021/08/26 07:01:17;;;;;;;9.65;6.07;;;14.30;99.90;;;;;;5034553;28;20049;-90
2021/08/26 07:03:44;;;;;;;9.90;5.45;;;14.40;99.90;;;;;;5034292;28;20041;-88
2021/08/26 07:06:11;;;;;;;8.32;5.22;;;14.40;99.90;;;;;;5034392;28;20059;-88
2021/08/26 07:08:38;;;;;;;9.98;5.38;;;14.40;99.90;;;;;;5034251;28;20056;-89
2021/08/26 07:11:06;;;;;;;9.20;5.35;;;14.40;99.90;;;;;;5034478;28;20398;-89
2021/08/26 07:13:33;;;;;;;9.68;5.78;;;14.50;99.90;;;;;;5034333;28;20509;-89
2021/08/26 07:16:00;;;;;;;8.27;5.13;;;14.50;99.90;;;;;;5034278;28;20052;-89
2021/08/26 07:18:28;;;;;;;9.00;5.60;;;14.60;99.90;;;;;;5034118;28;20041;-89
2021/08/26 07:20:55;;;;;;;8.88;5.70;;;14.60;99.90;;;;;;5034274;28;20198;-89
2021/08/26 07:23:22;;;;;;;9.38;5.40;;;14.70;99.90;;;;;;5034421;28;20056;-89
2021/08/26 07:25:50;;;;;;;8.98;5.63;;;14.70;99.90;;;;;;5034180;28;20049;-90
2021/08/26 07:28:18;;;;;;;10.15;5.72;;;14.70;99.90;;;;;;5034087;28;20071;-91
2021/08/26 07:30:45;;;;;;;10.68;6.50;;;14.80;99.90;;;;;;5034003;28;20045;-89
2021/08/26 07:33:12;;;;;;;7.90;4.72;;;14.80;99.90;;;;;;5033837;28;20487;-89
2021/08/26 07:35:39;;;;;;;10.90;5.80;;;14.80;99.90;;;;;;5034109;28;20049;-89
2021/08/26 07:38:06;;;;;;;12.18;6.63;;;14.80;99.90;;;;;;5033742;28;20140;-89
2021/08/26 07:40:33;;;;;;;10.35;5.85;;;14.80;99.90;;;;;;5034047;28;20045;-89
2021/08/26 07:43:00;;;;;;;9.38;5.82;;;14.80;99.90;;;;;;5033725;28;20558;-90
2021/08/26 07:45:30;;;;;;;9.57;5.78;;;14.80;99.90;;;;;;5033645;28;20045;-90
2021/08/26 07:47:57;;;;;;;13.27;5.97;;;14.80;99.90;;;;;;5033944;28;20050;-89
2021/08/26 07:50:24;;;;;;;9.25;5.28;;;14.80;99.90;;;;;;5033764;28;20502;-89
2021/08/26 07:52:51;;;;;;;8.48;5.40;;;14.90;99.90;;;;;;5033893;28;20434;-89
2021/08/26 07:55:18;;;;;;;11.32;6.18;;;14.90;99.90;;;;;;5033830;28;20045;-90
2021/08/26 07:57:45;;;;;;;10.82;5.88;;;14.90;99.90;;;;;;5033599;28;20055;-90
2021/08/26 08:00:13;;;;;;;10.00;5.93;;;14.90;99.90;;;;;;5033542;28;20046;-89
2021/08/26 08:02:41;;;;;;;9.90;5.43;;;14.90;99.90;;;;;;5033500;28;20060;-90
2021/08/26 08:05:10;;;;;;;10.48;6.15;;;14.90;99.90;;;;;;5033651;28;20049;-89
2021/08/26 08:07:42;;;;;;;9.82;5.30;;;14.90;99.90;;;;;;5033510;28;20045;-89
2021/08/26 08:10:09;;;;;;;8.85;5.53;;;14.90;99.90;;;;;;5033359;28;20107;-90
2021/08/26 08:12:36;;;;;;;10.70;5.53;;;15.00;99.90;;;;;;5033222;28;20045;-89
2021/08/26 08:15:05;;;;;;;10.63;6.13;;;14.90;99.90;;;;;;5033441;28;20051;-89
2021/08/26 08:17:32;;;;;;;9.18;5.55;;;15.00;99.90;;;;;;5033416;28;20071;-89
2021/08/26 08:20:01;;;;;;;11.23;6.55;;;15.00;99.90;;;;;;5033574;28;20045;-89
2021/08/26 08:22:28;;;;;;;9.30;5.38;;;15.00;99.90;;;;;;5033290;28;20052;-89
2021/08/26 08:24:55;;;;;;;10.45;5.53;;;15.10;99.90;;;;;;5033135;28;20048;-89
2021/08/26 08:27:22;;;;;;;13.07;6.30;;;15.10;99.90;;;;;;5034160;28;20049;-90
2021/08/26 08:29:49;;;;;;;10.27;6.20;;;15.10;99.90;;;;;;5035628;28;20113;-89
2021/08/26 08:32:16;;;;;;;11.48;6.05;;;15.10;99.90;;;;;;5033348;28;20049;-90
2021/08/26 08:34:43;;;;;;;8.77;5.20;;;15.20;99.90;;;;;;5033092;28;20045;-89
2021/08/26 08:37:12;;;;;;;11.73;6.50;;;15.20;99.90;;;;;;5033074;28;20144;-89
2021/08/26 08:39:39;;;;;;;11.27;5.88;;;15.20;99.90;;;;;;5032824;28;20064;-90
2021/08/26 08:42:06;;;;;;;12.63;5.93;;;15.20;99.90;;;;;;5033125;28;20052;-88
2021/08/26 08:44:33;;;;;;;9.80;5.95;;;15.20;99.90;;;;;;5033167;28;20402;-90
2021/08/26 08:47:00;;;;;;;9.98;5.70;;;15.30;99.90;;;;;;5032932;28;20076;-89
2021/08/26 08:49:27;;;;;;;11.25;6.63;;;15.30;99.90;;;;;;5033217;28;20046;-89
2021/08/26 08:51:56;;;;;;;10.32;5.97;;;15.30;99.90;;;;;;5033122;28;20041;-89
2021/08/26 08:54:25;;;;;;;9.60;5.47;;;15.30;99.90;;;;;;5032848;28;20050;-89
2021/08/26 08:56:52;;;;;;;8.20;4.88;;;15.30;99.90;;;;;;5033185;28;20041;-89
2021/08/26 08:59:20;;;;;;;9.43;5.65;;;15.40;99.90;;;;;;5033499;28;20490;-89
2021/08/26 09:01:54;;;;;;;8.73;5.60;;;15.40;99.90;;;;;;5036959;28;20056;-88
2021/08/26 09:04:21;;;;;;;10.02;5.68;;;15.40;99.90;;;;;;5036778;28;20133;-90
2021/08/26 09:06:50;;;;;;;9.57;6.00;;;15.40;99.90;;;;;;5037567;28;20045;-89
2021/08/26 09:09:20;;;;;;;10.98;6.00;;;15.40;99.90;;;;;;5038675;28;20056;-88
2021/08/26 09:11:53;;;;;;;11.40;5.82;;;15.40;99.90;;;;;;5036548;28;20073;-89
2021/08/26 09:14:24;;;;;;;11.18;5.82;;;15.40;99.90;;;;;;5036958;28;20067;-89
2021/08/26 09:16:54;;;;;;;11.27;6.40;;;15.40;99.90;;;;;;5036434;28;20045;-89
2021/08/26 09:19:29;;;;;;;10.13;6.38;;;15.40;99.90;;;;;;5036604;28;20095;-89
2021/08/26 09:21:57;;;;;;;10.77;5.72;;;15.30;99.90;;;;;;5043074;28;20053;-88
2021/08/26 09:24:24;;;;;;;11.45;5.70;;;15.30;99.90;;;;;;5051011;28;20052;-89
2021/08/26 09:26:53;;;;;;;9.68;6.03;;;15.40;99.90;;;;;;5050074;28;20132;-88
2021/08/26 09:29:20;;;;;;;10.85;6.40;;;15.40;99.90;;;;;;5050083;28;20050;-88
2021/08/26 09:31:48;;;;;;;10.63;6.57;;;15.50;99.90;;;;;;5039839;28;20045;-89
2021/08/26 09:34:17;;;;;;;11.07;6.03;;;15.50;99.90;;;;;;5037552;28;20050;-88
2021/08/26 09:36:56;;;;;;;11.63;6.93;;;15.50;99.90;;;;;;5037115;28;20060;-89
2021/08/26 09:39:25;;;;;;;13.25;7.18;;;15.50;99.90;;;;;;5036538;28;20449;-89
2021/08/26 09:41:57;;;;;;;12.82;7.53;;;15.50;99.90;;;;;;5036216;28;20103;-88
2021/08/26 09:44:27;;;;;;;13.38;8.75;;;15.50;99.90;;;;;;5036172;28;20095;-90
2021/08/26 09:47:02;;;;;;;13.55;8.63;;;15.50;99.90;;;;;;5035677;28;20071;-85
2021/08/26 09:49:31;;;;;;;12.68;8.43;;;15.50;99.90;;;;;;5036501;28;20052;-89
2021/08/26 09:52:10;;;;;;;14.00;9.90;;;15.40;99.90;;;;;;5035683;28;20055;-86
2021/08/26 09:54:41;;;;;;;13.98;9.38;;;15.50;99.90;;;;;;5035896;28;20046;-92
2021/08/26 09:57:23;;;;;;;11.93;8.75;;;15.50;99.90;;;;;;5039340;28;20045;-91
2021/08/26 09:59:53;;;;;;;16.83;10.63;;;15.50;99.90;;;;;;5037930;28;20049;-92
2021/08/26 10:02:21;;;;;;;14.45;9.70;;;15.50;99.90;;;;;;5051510;28;20048;-94
2021/08/26 10:04:50;;;;;;;16.35;10.43;;;15.50;99.90;;;;;;5037856;28;20132;-94
2021/08/26 10:07:18;;;;;;;15.05;10.18;;;15.50;99.90;;;;;;5037827;28;20295;-93
2021/08/26 10:09:46;;;;;;;15.77;10.55;;;15.50;99.90;;;;;;5037554;28;20183;-94
2021/08/26 10:12:16;;;;;;;17.20;10.73;;;15.50;99.90;;;;;;5035386;28;20045;-94
2021/08/26 10:14:45;;;;;;;14.93;10.05;;;15.50;99.90;;;;;;5048166;28;20041;-93
2021/08/26 10:17:14;;;;;;;14.60;9.30;;;15.50;99.90;;;;;;5038872;28;20049;-95
2021/08/26 10:19:42;;;;;;;13.93;8.55;;;15.60;99.90;;;;;;5041674;28;20124;-96
2021/08/26 10:22:11;;;;;;;12.75;8.40;;;15.60;99.90;;;;;;5038914;28;20050;-95
2021/08/26 10:24:39;;;;;;;14.43;10.70;;;15.70;99.90;;;;;;5038243;28;20056;-94
2021/08/26 10:27:08;;;;;;;16.48;10.93;;;15.70;99.90;;;;;;5037096;28;20075;-94
2021/08/26 10:29:43;;;;;;;17.70;11.65;;;15.70;99.90;;;;;;5036595;28;20046;-94
2021/08/26 10:32:17;;;;;;;15.10;9.32;;;15.70;99.90;;;;;;5043657;28;20052;-94
2021/08/26 10:35:06;;;;;;;17.63;11.48;;;15.60;99.90;;;;;;5055503;28;20056;-94
2021/08/26 10:37:49;;;;;;;14.90;10.95;;;15.60;99.90;;;;;;5050771;28;20059;-94
2021/08/26 10:40:35;;;;;;;16.65;10.50;;;15.50;99.90;;;;;;5034407;28;20095;-92
2021/08/26 10:43:02;;;;;;;16.08;12.40;;;15.40;99.90;;;;;;5042333;28;20095;-92
2021/08/26 10:45:49;;;;;;;16.10;11.90;;;15.40;99.90;;;;;;5053446;28;20049;-93
2021/08/26 10:48:25;;;;;;;16.20;11.40;;;15.40;99.90;;;;;;5053528;28;20052;-92
2021/08/26 10:51:16;;;;;;;15.60;11.52;;;15.40;99.90;;;;;;5033641;28;20092;-92
2021/08/26 10:53:45;;;;;;;14.07;9.98;;;15.30;99.90;;;;;;5033051;28;20046;-93
2021/08/26 10:56:29;;;;;;;13.48;9.25;;;15.30;99.90;;;;;;5033293;28;20057;-93
2021/08/26 10:58:58;;;;;;;13.48;10.00;;;15.40;99.90;;;;;;5033065;28;20049;-91
2021/08/26 11:01:44;;;;;;;12.85;8.88;;;15.40;99.90;;;;;;5031538;28;20049;-88
2021/08/26 11:04:25;;;;;;;11.40;8.40;;;15.40;99.90;;;;;;5031961;28;20125;-89
2021/08/26 11:06:52;;;;;;;8.85;6.50;;;15.40;99.90;;;;;;5045078;28;20091;-88
2021/08/26 11:09:38;;;;;;;7.72;5.35;;;15.30;99.90;;;;;;5051578;28;20049;-90
2021/08/26 11:12:24;;;;;;;8.68;5.20;;;15.30;99.90;;;;;;5049315;28;20541;-88
2021/08/26 11:14:52;;;;;;;5.43;3.58;;;15.20;99.90;;;;;;5038515;28;20061;-89
2021/08/26 11:17:33;;;;;;;5.10;3.40;;;15.10;99.90;;;;;;5051559;28;20140;-88
2021/08/26 11:20:28;;;;;;;5.22;3.10;;;15.10;99.90;;;;;;5039948;28;20053;-88
2021/08/26 11:23:08;;;;;;;4.65;3.10;;;15.20;99.90;;;;;;5030424;28;20487;-89
2021/08/26 11:25:35;;;;;;;5.55;3.13;;;15.20;99.90;;;;;;5031193;28;20141;-89
2021/08/26 11:28:35;;;;;;;5.85;3.85;;;15.30;99.90;;;;;;5031714;28;20053;-88
2021/08/26 11:31:20;;;;;;;5.50;3.08;;;15.40;99.90;;;;;;5032448;28;20052;-89
2021/08/26 11:33:51;;;;;;;5.78;2.97;;;15.50;99.90;;;;;;5051188;28;20041;-87
2021/08/26 11:36:19;;;;;;;4.07;2.60;;;15.60;99.90;;;;;;5034215;28;20410;-88
2021/08/26 11:38:49;;;;;;;4.40;2.40;;;15.70;99.90;;;;;;5045259;28;20422;-87
2021/08/26 11:41:16;;;;;;;3.67;2.10;;;15.80;99.90;;;;;;5049869;28;20501;-87
2021/08/26 11:43:44;;;;;;;4.10;2.10;;;15.80;99.90;;;;;;5049970;28;20048;-87
2021/08/26 11:46:14;;;;;;;4.38;1.95;;;15.90;99.90;;;;;;5049304;28;20143;-87
2021/08/26 11:48:52;;;;;;;4.55;2.20;;;16.00;99.90;;;;;;5050191;28;20061;-87
2021/08/26 11:51:31;;;;;;;4.13;2.40;;;16.00;99.90;;;;;;5039131;28;20056;-89
2021/08/26 11:54:18;;;;;;;4.65;2.33;;;16.10;99.90;;;;;;5034840;28;20092;-87
2021/08/26 11:56:49;;;;;;;5.82;2.78;;;16.20;99.90;;;;;;5030155;28;20129;-87
2021/08/26 11:59:32;;;;;;;4.03;2.30;;;16.20;99.90;;;;;;5030477;28;20073;-87
2021/08/26 12:02:23;;;;;;;4.18;2.28;;;16.30;99.90;;;;;;5030662;28;20045;-87
2021/08/26 12:04:54;;;;;;;4.97;2.67;;;16.40;99.90;;;;;;5031091;28;20205;-88
2021/08/26 12:07:27;;;;;;;4.68;2.63;;;16.40;99.90;;;;;;5030530;28;20164;-88
2021/08/26 12:09:56;;;;;;;4.70;2.50;;;16.40;99.90;;;;;;5030399;28;20081;-86
2021/08/26 12:12:23;;;;;;;4.68;2.58;;;16.40;99.90;;;;;;5030870;28;20128;-88
2021/08/26 12:14:50;;;;;;;4.32;2.50;;;16.40;99.90;;;;;;5030805;28;20077;-88
2021/08/26 12:17:19;;;;;;;4.78;2.38;;;16.40;99.90;;;;;;5031003;28;20061;-88
2021/08/26 12:19:48;;;;;;;4.18;2.13;;;16.40;99.90;;;;;;5030786;28;20045;-88
2021/08/26 12:22:20;;;;;;;4.38;2.50;;;16.50;99.90;;;;;;5030602;28;20505;-87
2021/08/26 12:24:52;;;;;;;4.32;2.50;;;16.50;99.90;;;;;;5040951;28;20048;-88
2021/08/26 12:27:20;;;;;;;5.22;2.50;;;16.50;99.90;;;;;;5050235;28;20049;-86
2021/08/26 12:29:50;;;;;;;8.38;3.40;;;16.50;99.90;;;;;;5050341;28;20092;-87
2021/08/26 12:32:33;;;;;;;4.53;2.40;;;16.40;99.90;;;;;;5050235;28;20060;-87
2021/08/26 12:35:22;;;;;;;4.78;2.78;;;16.40;99.90;;;;;;5054074;28;20088;-86
2021/08/26 12:38:00;;;;;;;5.32;2.90;;;16.40;99.90;;;;;;5054363;28;20150;-87
2021/08/26 12:40:30;;;;;;;5.45;3.08;;;16.40;99.90;;;;;;5053643;28;20106;-88
2021/08/26 12:43:07;;;;;;;5.55;2.78;;;16.40;99.90;;;;;;5054428;28;20135;-86
2021/08/26 12:45:36;;;;;;;4.40;2.50;;;16.40;99.90;;;;;;5054094;28;20056;-86
2021/08/26 12:48:29;;;;;;;5.90;2.40;;;16.40;99.90;;;;;;5054241;28;20060;-87
2021/08/26 12:51:26;;;;;;;6.22;3.03;;;16.40;99.90;;;;;;5051727;28;20051;-85
2021/08/26 12:54:15;;;;;;;4.88;2.40;;;16.40;99.90;;;;;;5012505;28;20066;-86
2021/08/26 12:56:46;;;;;;;4.10;2.03;;;16.60;99.90;;;;;;5050190;28;20053;-86
2021/08/26 12:59:15;;;;;;;5.40;2.72;;;16.60;99.90;;;;;;5053608;28;20140;-87